Flight Track Log - Related Links

Times and Time Zones

All times are in EDT time to prevent confusion due to time zone crossing. See the SWA1496 flight status page for this flight to view local times or setup timezone preferences in your user account.

Time Position Orientation Groundspeed Altitude Reporting Facility
EDT Latitude Longitude Course Direction KTS MPH feet Rate Location/Type
Sat 10:24:33 PM 33.9422 -118.5367 269° West 228 262 4,400  Level Los Angeles Center
Sat 10:25:34 PM 33.9811 -118.6225 299° West 272 313 7,000 1,659 Climbing Los Angeles Center
Sat 10:26:36 PM 34.0311 -118.6911 311° West 277 319 7,800 976 Climbing Los Angeles Center
Sat 10:27:37 PM 34.1056 -118.6600 19° North 289 333 9,000 1,033 Climbing Los Angeles Center
Sat 10:28:38 PM 34.1839 -118.6556 North 293 337 9,900 1,805 Climbing Los Angeles Center
Sat 10:29:40 PM 34.2658 -118.6722 350° North 295 339 12,700 2,488 Climbing Los Angeles Center
Sat 10:30:41 PM 34.3614 -118.6911 351° North 337 388 15,000 2,439 Climbing Los Angeles Center
Sat 10:31:43 PM 34.4647 -118.7119 351° North 372 428 17,700 2,488 Climbing Los Angeles Center
Sat 10:32:44 PM 34.5706 -118.7428 347° North 392 451 20,100 2,705 Climbing Los Angeles Center
Sat 10:33:45 PM 34.6711 -118.7975 336° Northwest 394 453 23,200 2,488 Climbing Los Angeles Center
Sat 10:34:47 PM 34.7750 -118.8481 338° Northwest 401 461 25,200 2,098 Climbing Los Angeles Center
Sat 10:35:48 PM 34.9017 -118.9064 339° North 416 479 27,500 1,902 Climbing Los Angeles Center
Sat 10:36:50 PM 35.0144 -118.9561 340° North 429 494 29,100 1,610 Climbing Los Angeles Center
Sat 10:37:51 PM 35.1306 -119.0067 340° North 439 505 30,800 1,574 Climbing Los Angeles Center
Sat 10:38:52 PM 35.2478 -119.0597 340° North 445 512 32,300 1,561 Climbing Los Angeles Center
Sat 10:39:54 PM 35.3667 -119.1125 340° North 450 518 34,000 1,756 Climbing Los Angeles Center
Sat 10:40:55 PM 35.4831 -119.1656 340° North 451 519 35,900 976 Climbing Los Angeles Center
Sat 10:41:57 PM 35.5981 -119.2186 339° North 448 516 36,000  Climbing Los Angeles Center
Sat 10:42:58 PM 35.7408 -119.2850 339° North 453 521 35,900 -49 Descending Los Angeles Center
Sat 10:43:59 PM 35.8567 -119.3378 340° North 449 517 35,900  Level Los Angeles Center
Sat 10:44:59 PM 35.9714 -119.3894 340° North 451 519 35,900  Level Oakland Center
Sat 10:46:00 PM 36.0853 -119.4439 339° North 444 511 35,900  Level Oakland Center
Sat 10:47:01 PM 36.1933 -119.5153 332° Northwest 441 507 35,900  Level Oakland Center
Sat 10:48:02 PM 36.2997 -119.5872 331° Northwest 439 505 35,900  Level Oakland Center
Sat 10:49:03 PM 36.4072 -119.6581 332° Northwest 437 503 35,900  Level Oakland Center
Sat 10:50:04 PM 36.5158 -119.7297 332° Northwest 441 507 35,900  Level Oakland Center
Sat 10:51:05 PM 36.6244 -119.8050 331° Northwest 446 513 35,900  Level Oakland Center
Sat 10:52:06 PM 36.7347 -119.8786 332° Northwest 449 517 35,900  Level Oakland Center
Sat 10:53:07 PM 36.8425 -119.9508 332° Northwest 441 507 35,900 -590 Level Oakland Center
Sat 10:54:08 PM 36.9722 -120.0389 332° Northwest 442 509 34,700 -2,115 Descending Oakland Center
Sat 10:55:09 PM 37.0828 -120.1156 331° Northwest 453 521 31,600 -2,727 Descending Oakland Center
Sat 10:56:09 PM 37.1897 -120.1889 331° Northwest 448 516 29,200 -2,231 Descending Oakland Center
Sat 10:57:10 PM 37.2908 -120.2586 331° Northwest 424 488 27,100 -2,115 Descending Oakland Center
Sat 10:58:11 PM 37.3853 -120.3275 330° Northwest 401 461 24,900 -2,073 Descending Oakland Center
Sat 10:59:00 PM 37.4667 -120.4000 325° Northwest 378 435 23,300 -1,376 Descending Northern Cal TRACON
Sat 11:00:00 PM 37.5500 -120.4667 328° Northwest 388 447 22,400 -900 Descending Northern Cal TRACON
Sat 11:01:00 PM 37.6333 -120.5500 322° Northwest 379 436 21,500 -1,000 Descending Northern Cal TRACON
Sat 11:02:00 PM 37.7167 -120.6333 322° Northwest 372 428 20,400 -952 Descending Northern Cal TRACON
Sat 11:03:06 PM 37.8000 -120.7333 317° Northwest 367 422 19,500 -756 Descending Northern Cal TRACON
Sat 11:04:07 PM 37.8833 -120.8167 322° Northwest 371 427 18,800 -942 Descending Northern Cal TRACON
Sat 11:05:07 PM 37.9667 -120.8833 328° Northwest 366 421 17,600 -1,109 Descending Northern Cal TRACON
Sat 11:06:06 PM 38.0333 -120.9667 315° West 352 405 16,600 -1,000 Descending Northern Cal TRACON
Sat 11:07:07 PM 38.1000 -121.0500 315° West 335 386 15,600 -992 Descending Northern Cal TRACON
Sat 11:08:07 PM 38.1667 -121.1500 310° West 339 390 14,600 -1,450 Descending Northern Cal TRACON
Sat 11:09:07 PM 38.2333 -121.2333 316° Northwest 337 388 12,700 -2,050 Descending Northern Cal TRACON
Sat 11:10:07 PM 38.2833 -121.3167 307° West 336 387 10,500 -1,350 Descending Northern Cal TRACON
Sat 11:11:07 PM 38.3500 -121.4000 316° Northwest 317 365 10,000 -350 Descending Northern Cal TRACON
Sat 11:12:07 PM 38.4000 -121.5000 303° West 321 369 9,800 -1,091 Descending Northern Cal TRACON
Sat 11:14:25 PM 38.5564 -121.6375 326° Northwest 296 341 6,400 -1,636 Descending Oakland Center
Sat 11:15:25 PM 38.6250 -121.6897 329° Northwest 287 330 4,400 -1,686 Descending Oakland Center
Sat 11:16:26 PM 38.7019 -121.7003 354° North 279 321 3,000 -689 Descending Oakland Center
Sat 11:17:27 PM 38.7697 -121.7089 354° North 250 288 3,000 -393 Level Oakland Center
Sat 11:18:28 PM 38.8000 -121.6547 54° Northeast 231 266 2,200 -840 Descending Oakland Center
Sat 11:19:07 PM 38.7833 -121.6167 119° Southeast 197 227 1,600 -848 Descending Northern Cal TRACON
Sat 11:20:07 PM 38.7500 -121.6000 159° South 133 153 800 -684 Descending Northern Cal TRACON
Sat 11:21:01 PM 38.7167 -121.6000 180° South 123 142 300 -556 Descending Northern Cal TRACON

Login

Don't have an account? Register now (free) for customized features, flight alerts, and more!